Time;durP1;ratioP1;P1;durP2;ratioP2;P2;SDS_P1;SDS_P2;PMS_P1;PMS_P2;Temp;Humidity;BMP_temperature;BMP_pressure;BME280_temperature;BME280_humidity;BME280_pressure;Samples;Min_cycle;Max_cycle;Signal;HPM_P1;HPM_P2
2021/03/01 00:01:02;;;;;;;;;;;;;;;16.92;37.00;101584.62;4419309;32;19950;-55
2021/03/01 00:03:28;;;;;;;;;;;;;;;16.94;37.07;101576.78;4416959;32;20411;-55
2021/03/01 00:05:54;;;;;;;;;;;;;;;16.88;37.10;101576.50;4417598;32;19958;-53
2021/03/01 00:08:20;;;;;;;;;;;;;;;16.89;37.09;101573.94;4415450;32;20561;-53
2021/03/01 00:10:46;;;;;;;;;;;;;;;16.88;37.10;101571.25;4416540;32;19954;-51
2021/03/01 00:13:12;;;;;;;;;;;;;;;16.92;37.05;101573.19;4415745;32;19957;-55
2021/03/01 00:15:37;;;;;;;;;;;;;;;16.88;37.05;101580.03;4417943;32;19958;-53
2021/03/01 00:18:03;;;;;;;;;;;;;;;16.86;37.07;101574.72;4415406;32;19978;-51
2021/03/01 00:20:29;;;;;;;;;;;;;;;16.89;37.04;101570.41;4416899;32;19971;-54
2021/03/01 00:22:55;;;;;;;;;;;;;;;16.81;37.21;101573.59;4417146;32;20357;-54
2021/03/01 00:25:21;;;;;;;;;;;;;;;16.85;37.19;101580.81;4417107;32;19938;-50
2021/03/01 00:27:47;;;;;;;;;;;;;;;16.78;37.28;101577.78;4416103;32;19976;-53
2021/03/01 00:30:13;;;;;;;;;;;;;;;16.76;37.35;101582.09;4416901;32;19953;-50
2021/03/01 00:32:38;;;;;;;;;;;;;;;16.75;37.33;101578.59;4417590;32;19958;-53
2021/03/01 00:35:04;;;;;;;;;;;;;;;16.78;37.35;101583.97;4416180;32;19984;-54
2021/03/01 00:37:30;;;;;;;;;;;;;;;16.86;37.12;101581.69;4414428;32;20017;-55
2021/03/01 00:39:56;;;;;;;;;;;;;;;16.75;37.38;101581.22;4417161;32;21172;-54
2021/03/01 00:42:22;;;;;;;;;;;;;;;16.78;37.26;101588.31;4416910;32;20021;-50
2021/03/01 00:44:48;;;;;;;;;;;;;;;16.74;37.31;101584.69;4416923;32;20008;-51
2021/03/01 00:47:14;;;;;;;;;;;;;;;16.81;37.28;101584.12;4416174;32;19957;-51
2021/03/01 00:49:40;;;;;;;;;;;;;;;16.82;37.26;101585.91;4416875;32;19954;-51
2021/03/01 00:52:05;;;;;;;;;;;;;;;16.84;37.20;101578.97;4416365;32;19981;-55
2021/03/01 00:54:31;;;;;;;;;;;;;;;16.79;37.35;101580.50;4416979;32;20599;-53
2021/03/01 00:56:57;;;;;;;;;;;;;;;16.79;37.28;101579.59;4416492;32;20008;-53
2021/03/01 00:59:25;;;;;;;;;;;;;;;16.85;37.17;101585.16;4415458;32;20030;-55
2021/03/01 01:01:51;;;;;;;;;;;;;;;16.82;37.22;101578.00;4416438;32;19977;-55
2021/03/01 01:04:16;;;;;;;;;;;;;;;16.77;37.32;101574.28;4416169;32;19994;-53
2021/03/01 01:06:42;;;;;;;;;;;;;;;16.77;37.25;101571.66;4416161;32;20287;-53
2021/03/01 01:09:08;;;;;;;;;;;;;;;16.75;37.41;101567.16;4416003;32;20003;-52
2021/03/01 01:11:34;;;;;;;;;;;;;;;16.78;37.29;101573.44;4416433;32;20378;-50
2021/03/01 01:14:00;;;;;;;;;;;;;;;16.69;37.49;101570.38;4416949;32;19946;-52
2021/03/01 01:16:26;;;;;;;;;;;;;;;16.72;37.42;101563.53;4416261;32;20331;-53
2021/03/01 01:18:52;;;;;;;;;;;;;;;16.76;37.33;101569.84;4412913;32;19989;-53
2021/03/01 01:21:18;;;;;;;;;;;;;;;16.75;37.34;101568.06;4415977;32;19982;-53
2021/03/01 01:23:43;;;;;;;;;;;;;;;16.76;37.30;101564.59;4415836;32;20722;-55
2021/03/01 01:26:09;;;;;;;;;;;;;;;16.77;37.38;101570.75;4416456;32;19976;-55
2021/03/01 01:28:35;;;;;;;;;;;;;;;16.80;37.30;101568.28;4415552;32;20395;-55
2021/03/01 01:31:01;;;;;;;;;;;;;;;16.73;37.38;101556.56;4416250;32;19949;-52
2021/03/01 01:33:27;;;;;;;;;;;;;;;16.75;37.37;101556.63;4415890;32;20002;-50
2021/03/01 01:35:53;;;;;;;;;;;;;;;16.81;37.17;101557.81;4405730;32;19958;-54
2021/03/01 01:38:19;;;;;;;;;;;;;;;16.81;37.21;101563.06;4413072;32;19954;-55
2021/03/01 01:40:44;;;;;;;;;;;;;;;16.75;37.42;101551.34;4411774;32;20344;-53
2021/03/01 01:43:10;;;;;;;;;;;;;;;16.77;37.40;101547.97;4406894;32;19958;-54
2021/03/01 01:45:36;;;;;;;;;;;;;;;16.76;37.28;101551.44;4400860;32;20019;-51
2021/03/01 01:48:02;;;;;;;;;;;;;;;16.71;37.42;101545.06;4401382;32;20374;-51
2021/03/01 01:50:29;;;;;;;;;;;;;;;16.67;37.51;101544.03;4404190;32;19994;-52
2021/03/01 01:52:55;;;;;;;;;;;;;;;16.71;37.39;101545.06;4400537;32;20288;-55
2021/03/01 01:55:21;;;;;;;;;;;;;;;16.72;37.47;101542.50;4413046;32;19958;-53
2021/03/01 01:57:47;;;;;;;;;;;;;;;16.66;37.52;101544.84;4415584;32;19953;-55
2021/03/01 02:02:58;;;;;;;;;;;;;;;16.60;37.63;101541.03;4412342;32;20072;-51
2021/03/01 02:05:23;;;;;;;;;;;;;;;16.58;37.73;101547.09;4415274;32;20509;-54
2021/03/01 02:07:49;;;;;;;;;;;;;;;16.61;37.56;101541.09;4414231;32;19950;-51
2021/03/01 02:10:15;;;;;;;;;;;;;;;16.67;37.43;101543.13;4415419;32;19958;-55
2021/03/01 02:12:41;;;;;;;;;;;;;;;16.67;37.49;101540.50;4415042;32;20009;-55
2021/03/01 02:15:07;;;;;;;;;;;;;;;16.64;37.55;101543.88;4407465;32;19959;-54
2021/03/01 02:17:33;;;;;;;;;;;;;;;16.63;37.60;101551.72;4400569;32;20361;-49
2021/03/01 02:19:59;;;;;;;;;;;;;;;16.72;37.37;101546.84;4407292;32;19943;-55
2021/03/01 02:22:25;;;;;;;;;;;;;;;16.68;37.43;101544.91;4406225;32;19970;-55
2021/03/01 02:24:51;;;;;;;;;;;;;;;16.74;37.29;101539.03;4415349;32;19996;-55
2021/03/01 02:27:17;;;;;;;;;;;;;;;16.79;37.14;101538.41;4412702;32;19972;-54
2021/03/01 02:29:43;;;;;;;;;;;;;;;16.67;37.41;101533.50;4417239;32;20365;-55
2021/03/01 02:32:09;;;;;;;;;;;;;;;16.65;37.49;101531.63;4413867;32;19954;-52
2021/03/01 02:34:35;;;;;;;;;;;;;;;16.67;37.44;101533.50;4410118;32;20001;-52
2021/03/01 02:37:00;;;;;;;;;;;;;;;16.60;37.54;101528.78;4415261;32;20302;-52
2021/03/01 02:39:26;;;;;;;;;;;;;;;16.67;37.41;101532.59;4414783;32;19993;-52
2021/03/01 02:41:52;;;;;;;;;;;;;;;16.70;37.41;101528.37;4414885;32;19961;-55
2021/03/01 02:44:18;;;;;;;;;;;;;;;16.66;37.51;101525.53;4415245;32;20267;-55
2021/03/01 02:46:44;;;;;;;;;;;;;;;16.67;37.38;101527.34;4413495;32;19946;-54
2021/03/01 02:49:10;;;;;;;;;;;;;;;16.70;37.39;101528.37;4413980;32;19969;-55
2021/03/01 02:51:36;;;;;;;;;;;;;;;16.74;37.23;101529.44;4414554;32;20294;-55
2021/03/01 02:54:02;;;;;;;;;;;;;;;16.65;37.45;101529.00;4415661;32;19958;-53
2021/03/01 02:56:28;;;;;;;;;;;;;;;16.70;37.32;101532.72;4414750;32;20356;-53
2021/03/01 02:58:53;;;;;;;;;;;;;;;16.68;37.42;101535.31;4414797;32;19958;-53
2021/03/01 03:01:19;;;;;;;;;;;;;;;16.60;37.56;101536.66;4414843;32;19958;-55
2021/03/01 03:03:45;;;;;;;;;;;;;;;16.66;37.45;101536.06;4415410;32;19942;-53
2021/03/01 03:06:11;;;;;;;;;;;;;;;16.66;37.43;101538.69;4413917;32;20377;-51
2021/03/01 03:08:37;;;;;;;;;;;;;;;16.68;37.40;101532.69;4414539;32;19969;-51
2021/03/01 03:11:03;;;;;;;;;;;;;;;16.62;37.54;101535.00;4414844;32;19954;-54
2021/03/01 03:13:29;;;;;;;;;;;;;;;16.58;37.62;101533.06;4413141;32;19995;-55
2021/03/01 03:15:55;;;;;;;;;;;;;;;16.53;37.67;101532.84;4414618;32;19968;-55
2021/03/01 03:18:21;;;;;;;;;;;;;;;16.65;37.47;101529.00;4414579;32;20303;-53
2021/03/01 03:20:46;;;;;;;;;;;;;;;16.67;37.40;101532.59;4414285;32;19958;-54
2021/03/01 03:23:12;;;;;;;;;;;;;;;16.69;37.35;101526.59;4414943;32;19981;-51
2021/03/01 03:25:38;;;;;;;;;;;;;;;16.53;37.67;101522.34;4420833;32;20317;-54
2021/03/01 03:28:04;;;;;;;;;;;;;;;16.51;37.73;101525.72;4419378;32;19953;-50
2021/03/01 03:30:30;;;;;;;;;;;;;;;16.46;37.79;101525.50;4419398;32;19975;-54
2021/03/01 03:32:56;;;;;;;;;;;;;;;16.56;37.61;101529.47;4419962;32;19954;-55
2021/03/01 03:35:22;;;;;;;;;;;;;;;16.70;37.33;101527.47;4419325;32;19958;-55
2021/03/01 03:37:48;;;;;;;;;;;;;;;16.57;37.56;101526.91;4419651;32;19953;-53
2021/03/01 03:40:14;;;;;;;;;;;;;;;16.55;37.62;101531.19;4419400;32;20342;-53
2021/03/01 03:42:39;;;;;;;;;;;;;;;16.53;37.72;101530.22;4420370;32;19968;-52
2021/03/01 03:45:05;;;;;;;;;;;;;;;16.52;37.68;101527.50;4418528;32;20441;-54
2021/03/01 03:47:31;;;;;;;;;;;;;;;16.50;37.74;101524.84;4419544;32;19962;-54
2021/03/01 03:49:57;;;;;;;;;;;;;;;16.47;37.88;101523.78;4419907;32;19994;-54
2021/03/01 03:52:23;;;;;;;;;;;;;;;16.45;37.88;101521.06;4419379;32;20179;-52
2021/03/01 03:54:49;;;;;;;;;;;;;;;16.49;37.72;101517.78;4419863;32;19980;-49
2021/03/01 03:57:15;;;;;;;;;;;;;;;16.50;37.73;101516.94;4418775;32;19976;-51
2021/03/01 03:59:41;;;;;;;;;;;;;;;16.48;37.71;101515.94;4418375;32;19976;-55
2021/03/01 04:02:07;;;;;;;;;;;;;;;16.45;37.87;101515.81;4419776;32;19997;-54
2021/03/01 04:04:32;;;;;;;;;;;;;;;16.46;37.80;101514.97;4419505;32;20354;-51
2021/03/01 04:06:58;;;;;;;;;;;;;;;16.54;37.63;101520.59;4418695;32;19982;-55
2021/03/01 04:09:24;;;;;;;;;;;;;;;16.52;37.73;101517.91;4419343;32;20268;-54
2021/03/01 04:11:50;;;;;;;;;;;;;;;16.52;37.64;101515.28;4419340;32;20371;-49
2021/03/01 04:14:16;;;;;;;;;;;;;;;16.56;37.64;101516.34;4418893;32;19972;-53
2021/03/01 04:16:42;;;;;;;;;;;;;;;16.55;37.60;101515.41;4419851;32;20568;-54
2021/03/01 04:19:08;;;;;;;;;;;;;;;16.52;37.66;101517.91;4418189;32;20011;-53
2021/03/01 04:21:34;;;;;;;;;;;;;;;16.52;37.68;101517.91;4418490;32;20325;-50
2021/03/01 04:24:00;;;;;;;;;;;;;;;16.52;37.74;101519.62;4420106;32;20012;-51
2021/03/01 04:26:25;;;;;;;;;;;;;;;16.43;37.88;101517.47;4419849;32;19973;-51
2021/03/01 04:28:51;;;;;;;;;;;;;;;16.39;37.93;101521.69;4418582;32;19981;-52
2021/03/01 04:31:17;;;;;;;;;;;;;;;16.35;38.05;101529.34;4419525;32;19992;-50
2021/03/01 04:33:44;;;;;;;;;;;;;;;16.45;37.86;101521.06;4419298;32;19946;-54
2021/03/01 04:36:10;;;;;;;;;;;;;;;16.39;37.93;101526.06;4415557;32;19973;-52
2021/03/01 04:38:36;;;;;;;;;;;;;;;16.36;38.04;101525.88;4416255;32;19962;-51
2021/03/01 04:41:02;;;;;;;;;;;;;;;16.51;37.67;101526.62;4417185;32;19951;-50
2021/03/01 04:43:28;;;;;;;;;;;;;;;16.46;37.74;101517.63;4403813;32;20295;-55
2021/03/01 04:45:53;;;;;;;;;;;;;;;16.50;37.77;101524.84;4405624;32;19994;-52
2021/03/01 04:48:19;;;;;;;;;;;;;;;16.45;37.76;101521.06;4413798;32;19949;-53
2021/03/01 04:50:45;;;;;;;;;;;;;;;16.47;37.74;101524.66;4411438;32;19954;-55
2021/03/01 04:53:11;;;;;;;;;;;;;;;16.42;37.84;101518.31;4404309;32;19966;-55
2021/03/01 04:55:37;;;;;;;;;;;;;;;16.37;37.97;101517.19;4401932;32;20551;-51
2021/03/01 04:58:03;;;;;;;;;;;;;;;16.43;37.85;101525.37;4401318;32;19959;-52
2021/03/01 05:00:29;;;;;;;;;;;;;;;16.44;37.82;101525.44;4402463;32;19980;-49
2021/03/01 05:02:54;;;;;;;;;;;;;;;16.50;37.71;101527.47;4415295;32;20663;-53
2021/03/01 05:05:20;;;;;;;;;;;;;;;16.45;37.77;101528.97;4416282;32;19954;-54
2021/03/01 05:07:46;;;;;;;;;;;;;;;16.41;37.82;101527.91;4418843;32;19986;-53
2021/03/01 05:10:12;;;;;;;;;;;;;;;16.48;37.78;101526.47;4419688;32;20032;-52
2021/03/01 05:12:38;;;;;;;;;;;;;;;16.44;37.75;101524.53;4412175;32;19958;-54
2021/03/01 05:15:04;;;;;;;;;;;;;;;16.46;37.75;101524.63;4413158;32;19961;-49
2021/03/01 05:17:30;;;;;;;;;;;;;;;16.43;37.76;101531.53;4412278;32;19965;-53
2021/03/01 05:19:56;;;;;;;;;;;;;;;16.49;37.65;101528.28;4409117;32;19961;-54
2021/03/01 05:22:21;;;;;;;;;;;;;;;16.43;37.85;101538.50;4407955;32;19958;-50
2021/03/01 05:24:47;;;;;;;;;;;;;;;16.35;37.97;101545.13;4415351;32;20368;-49
2021/03/01 05:27:13;;;;;;;;;;;;;;;16.35;38.02;101540.78;4416102;32;19977;-52
2021/03/01 05:29:39;;;;;;;;;;;;;;;16.32;38.12;101545.91;4405780;32;19997;-51
2021/03/01 05:32:05;;;;;;;;;;;;;;;16.37;37.94;101546.13;4415426;32;19973;-53
2021/03/01 05:34:31;;;;;;;;;;;;;;;16.42;37.86;101541.97;4415419;32;19973;-52
2021/03/01 05:36:57;;;;;;;;;;;;;;;16.41;37.84;101545.44;4413957;32;20347;-52
2021/03/01 05:39:23;;;;;;;;;;;;;;;16.37;37.94;101548.75;4419843;32;20033;-55
2021/03/01 05:41:49;;;;;;;;;;;;;;;16.41;37.87;101546.31;4427903;32;19954;-53
2021/03/01 05:44:14;;;;;;;;;;;;;;;16.42;37.84;101552.47;4415101;32;20211;-53
2021/03/01 05:46:40;;;;;;;;;;;;;;;16.32;38.08;101555.50;4405753;32;19958;-51
2021/03/01 05:49:06;;;;;;;;;;;;;;;16.37;37.92;101554.00;4415698;32;19962;-53
2021/03/01 05:51:32;;;;;;;;;;;;;;;16.35;38.00;101545.13;4414093;32;19994;-49
2021/03/01 05:53:58;;;;;;;;;;;;;;;16.47;37.73;101544.81;4414141;32;20358;-51
2021/03/01 05:56:24;;;;;;;;;;;;;;;16.37;37.98;101544.38;4412710;32;19997;-52
2021/03/01 05:58:50;;;;;;;;;;;;;;;16.40;37.87;101555.03;4413431;32;19958;-54
2021/03/01 06:01:15;;;;;;;;;;;;;;;16.37;37.88;101548.75;4406286;32;19970;-55
2021/03/01 06:03:41;;;;;;;;;;;;;;;16.39;37.92;101547.09;4403658;32;19983;-53
2021/03/01 06:06:07;;;;;;;;;;;;;;;16.34;37.92;101544.25;4401234;32;20004;-49
2021/03/01 06:08:34;;;;;;;;;;;;;;;16.37;37.87;101554.88;4402603;32;19969;-52
2021/03/01 06:11:00;;;;;;;;;;;;;;;16.36;37.87;101552.19;4404784;32;19963;-55
2021/03/01 06:13:26;;;;;;;;;;;;;;;16.38;37.86;101545.28;4412393;32;20570;-50
2021/03/01 06:15:51;;;;;;;;;;;;;;;16.34;37.91;101551.22;4419164;32;19958;-54
2021/03/01 06:18:17;;;;;;;;;;;;;;;16.23;38.14;101555.97;4415009;32;19982;-51
2021/03/01 06:20:43;;;;;;;;;;;;;;;16.32;37.95;101540.62;4421243;32;19942;-52
2021/03/01 06:23:09;;;;;;;;;;;;;;;16.28;38.05;101550.09;4417547;32;20038;-54
2021/03/01 06:25:35;;;;;;;;;;;;;;;16.29;38.05;101553.62;4415573;32;20355;-53
2021/03/01 06:28:01;;;;;;;;;;;;;;;16.33;37.93;101557.28;4404582;32;19965;-52
2021/03/01 06:30:27;;;;;;;;;;;;;;;16.36;37.93;101553.09;4415965;32;20020;-51
2021/03/01 06:32:53;;;;;;;;;;;;;;;16.41;37.83;101558.56;4421404;32;19958;-53
2021/03/01 06:35:19;;;;;;;;;;;;;;;16.42;37.80;101557.75;4419057;32;19949;-53
2021/03/01 06:37:45;;;;;;;;;;;;;;;16.37;37.91;101564.53;4419969;32;19954;-48
2021/03/01 06:40:11;;;;;;;;;;;;;;;16.35;37.97;101561.81;4411739;32;20342;-52
2021/03/01 06:42:37;;;;;;;;;;;;;;;16.25;38.12;101571.00;4418478;32;19954;-50
2021/03/01 06:45:03;;;;;;;;;;;;;;;16.25;38.16;101560.47;4415044;32;19997;-48
2021/03/01 06:47:29;;;;;;;;;;;;;;;16.34;37.99;101564.34;4418368;32;20001;-49
2021/03/01 06:49:55;;;;;;;;;;;;;;;16.32;38.05;101560.75;4419881;32;20318;-51
2021/03/01 06:52:21;;;;;;;;;;;;;;;16.18;38.30;101568.87;4418803;32;19946;-55
2021/03/01 06:54:47;;;;;;;;;;;;;;;16.23;38.25;101572.63;4422002;32;19972;-54
2021/03/01 06:57:13;;;;;;;;;;;;;;;16.29;38.12;101572.94;4418074;32;19980;-53
2021/03/01 06:59:39;;;;;;;;;;;;;;;16.34;38.02;101572.25;4419300;32;20240;-52
2021/03/01 07:02:04;;;;;;;;;;;;;;;16.34;38.03;101566.97;4419755;32;19955;-52
2021/03/01 07:04:30;;;;;;;;;;;;;;;16.43;37.84;101580.56;4416307;32;19962;-54
2021/03/01 07:06:56;;;;;;;;;;;;;;;16.42;37.85;101581.41;4419836;32;19959;-53
2021/03/01 07:09:22;;;;;;;;;;;;;;;16.33;38.06;101588.84;4418699;32;20032;-53
2021/03/01 07:11:48;;;;;;;;;;;;;;;16.37;38.00;101588.19;4417326;32;20001;-51
2021/03/01 07:14:14;;;;;;;;;;;;;;;16.34;38.08;101590.66;4417053;32;20370;-54
2021/03/01 07:16:40;;;;;;;;;;;;;;;16.29;38.19;101586.06;4415358;32;20061;-51
2021/03/01 07:19:06;;;;;;;;;;;;;;;16.35;38.06;101592.44;4415253;32;19962;-51
2021/03/01 07:21:32;;;;;;;;;;;;;;;16.40;37.98;101585.69;4410311;32;19964;-52
2021/03/01 07:23:58;;;;;;;;;;;;;;;16.38;38.01;101589.97;4412695;32;19997;-52
2021/03/01 07:26:24;;;;;;;;;;;;;;;16.41;37.94;101591.00;4413792;32;19981;-53
2021/03/01 07:28:51;;;;;;;;;;;;;;;16.41;37.98;101592.75;4412332;32;19981;-51
2021/03/01 07:31:17;;;;;;;;;;;;;;;16.39;37.98;101590.03;4411405;32;19969;-51
2021/03/01 07:33:43;;;;;;;;;;;;;;;16.44;37.91;101593.81;4413088;32;19962;-50
2021/03/01 07:36:09;;;;;;;;;;;;;;;16.46;37.87;101596.50;4412153;32;20023;-52
2021/03/01 07:38:35;;;;;;;;;;;;;;;16.44;37.93;101599.06;4412664;32;19962;-51
2021/03/01 07:41:00;;;;;;;;;;;;;;;16.54;37.72;101600.41;4412444;32;19953;-53
2021/03/01 07:43:26;;;;;;;;;;;;;;;16.50;37.79;101595.84;4411963;32;20339;-54
2021/03/01 07:45:52;;;;;;;;;;;;;;;16.45;37.92;101605.22;4413589;32;19953;-54
2021/03/01 07:48:18;;;;;;;;;;;;;;;16.47;37.87;101603.56;4413380;32;19998;-53
2021/03/01 07:50:44;;;;;;;;;;;;;;;16.43;37.91;101598.97;4412425;32;20008;-53
2021/03/01 07:53:10;;;;;;;;;;;;;;;16.44;37.89;101598.16;4412536;32;19973;-53
2021/03/01 07:55:36;;;;;;;;;;;;;;;16.51;37.76;101600.25;4413968;32;20413;-52
2021/03/01 07:58:02;;;;;;;;;;;;;;;16.44;37.86;101604.31;4412134;32;19964;-53
2021/03/01 08:00:29;;;;;;;;;;;;;;;16.52;37.79;101602.06;4413235;32;19985;-54
2021/03/01 08:02:55;;;;;;;;;;;;;;;16.51;37.79;101597.62;4413378;32;20036;-52
2021/03/01 08:05:21;;;;;;;;;;;;;;;16.48;37.88;101599.22;4412256;32;19961;-51
2021/03/01 08:07:47;;;;;;;;;;;;;;;16.44;37.97;101609.59;4412387;32;20394;-50
2021/03/01 08:10:13;;;;;;;;;;;;;;;16.43;37.97;101617.38;4414322;32;19954;-54
2021/03/01 08:12:39;;;;;;;;;;;;;;;16.44;37.96;101611.31;4415516;32;19981;-50
2021/03/01 08:15:05;;;;;;;;;;;;;;;16.40;38.08;101612.00;4416113;32;20303;-51
2021/03/01 08:17:31;;;;;;;;;;;;;;;16.52;37.83;101611.66;4415520;32;19958;-51
2021/03/01 08:19:57;;;;;;;;;;;;;;;16.51;37.86;101609.87;4415641;32;19954;-50
2021/03/01 08:22:23;;;;;;;;;;;;;;;16.43;38.00;101612.13;4414047;32;20122;-51
2021/03/01 08:24:49;;;;;;;;;;;;;;;16.37;38.14;101607.47;4416249;32;20342;-53
2021/03/01 08:27:15;;;;;;;;;;;;;;;16.44;38.02;101603.41;4414940;32;19958;-51
2021/03/01 08:29:41;;;;;;;;;;;;;;;16.49;37.97;101607.19;4416138;32;19958;-53
2021/03/01 08:32:07;;;;;;;;;;;;;;;16.48;37.97;101607.97;4412744;32;19993;-53
2021/03/01 08:34:32;;;;;;;;;;;;;;;16.48;38.05;101604.47;4416116;32;20002;-54
2021/03/01 08:36:59;;;;;;;;;;;;;;;16.62;37.78;101597.25;4414610;32;20359;-48
2021/03/01 08:39:25;;;;;;;;;;;;;;;16.72;37.57;101610.91;4415480;32;19958;-53
2021/03/01 08:41:51;;;;;;;;;;;;;;;16.66;37.75;101607.97;4415929;32;19965;-52
2021/03/01 08:44:17;;;;;;;;;;;;;;;16.74;37.55;101613.59;4414770;32;20058;-51
2021/03/01 08:46:42;;;;;;;;;;;;;;;16.77;37.47;101605.84;4415526;32;19971;-52
2021/03/01 08:49:08;;;;;;;;;;;;;;;16.79;37.44;101612.09;4414986;32;19968;-51
2021/03/01 08:51:34;;;;;;;;;;;;;;;16.81;37.47;101620.06;4414746;32;20331;-49
2021/03/01 08:54:00;;;;;;;;;;;;;;;16.80;37.47;101616.50;4416059;32;19984;-52
2021/03/01 08:56:26;;;;;;;;;;;;;;;16.79;37.51;101612.09;4415431;32;20911;-49
2021/03/01 08:58:52;;;;;;;;;;;;;;;16.80;37.49;101603.34;4414264;32;19997;-53
2021/03/01 09:01:18;;;;;;;;;;;;;;;16.84;37.44;101615.81;4414483;32;19989;-51
2021/03/01 09:03:44;;;;;;;;;;;;;;;16.85;37.47;101615.00;4414972;32;19954;-54
2021/03/01 09:06:10;;;;;;;;;;;;;;;16.80;37.54;101613.88;4410790;32;20295;-52
2021/03/01 09:08:36;;;;;;;;;;;;;;;16.82;37.54;101611.34;4414691;32;19969;-52
2021/03/01 09:11:01;;;;;;;;;;;;;;;16.79;37.59;101617.34;4415254;32;19950;-52
2021/03/01 09:13:27;;;;;;;;;;;;;;;16.83;37.53;101614.00;4413843;32;20151;-54
2021/03/01 09:15:53;;;;;;;;;;;;;;;16.85;37.49;101612.38;4415546;32;20349;-52
2021/03/01 09:18:19;;;;;;;;;;;;;;;16.86;37.51;101608.00;4422458;32;19977;-53
2021/03/01 09:20:45;;;;;;;;;;;;;;;16.80;37.64;101608.62;4426321;32;20658;-50
2021/03/01 09:23:11;;;;;;;;;;;;;;;16.86;37.51;101614.19;4417792;32;19958;-53
2021/03/01 09:25:37;;;;;;;;;;;;;;;16.88;37.52;101619.50;4419338;32;19958;-51
2021/03/01 09:28:03;;;;;;;;;;;;;;;16.90;37.52;101614.31;4416287;32;19993;-50
2021/03/01 09:30:29;;;;;;;;;;;;;;;16.90;37.53;101606.44;4418377;32;19957;-52
2021/03/01 09:32:55;;;;;;;;;;;;;;;16.91;37.50;101613.50;4416589;32;19962;-53
2021/03/01 09:35:21;;;;;;;;;;;;;;;16.91;37.53;101621.38;4413314;32;19981;-53
2021/03/01 09:37:47;;;;;;;;;;;;;;;16.90;37.54;101614.31;4416554;32;19992;-49
2021/03/01 09:40:13;;;;;;;;;;;;;;;16.91;37.56;101610.84;4415296;32;20014;-50
2021/03/01 09:42:39;;;;;;;;;;;;;;;16.94;37.51;101601.38;4405133;32;20087;-52
2021/03/01 09:45:05;;;;;;;;;;;;;;;16.94;37.50;101606.66;4418002;32;19954;-51
2021/03/01 09:47:31;;;;;;;;;;;;;;;16.88;37.62;101603.72;4416383;32;19958;-48
2021/03/01 09:49:57;;;;;;;;;;;;;;;16.94;37.53;101600.47;4416568;32;20467;-47
2021/03/01 09:52:22;;;;;;;;;;;;;;;16.96;37.50;101598.78;4414827;32;20671;-51
2021/03/01 09:54:48;;;;;;;;;;;;;;;16.97;37.48;101595.34;4421470;32;19958;-51
2021/03/01 09:57:14;;;;;;;;;;;;;;;17.05;37.29;101590.47;4414480;32;20293;-52
2021/03/01 09:59:41;;;;;;;;;;;;;;;16.99;37.37;101588.44;4413941;32;19976;-54
2021/03/01 10:02:07;;;;;;;;;;;;;;;16.93;37.62;101585.50;4419660;32;19976;-51
2021/03/01 10:04:33;;;;;;;;;;;;;;;16.94;37.63;101582.03;4414338;32;19958;-50
2021/03/01 10:06:59;;;;;;;;;;;;;;;16.94;37.66;101584.69;4415675;32;19950;-51
2021/03/01 10:09:24;;;;;;;;;;;;;;;16.90;37.76;101588.00;4414669;32;19958;-49
2021/03/01 10:11:50;;;;;;;;;;;;;;;16.91;37.72;101580.16;4402185;32;20006;-52
2021/03/01 10:14:16;;;;;;;;;;;;;;;16.90;37.71;101583.63;4415720;32;19989;-52
2021/03/01 10:16:42;;;;;;;;;;;;;;;16.98;37.60;101584.00;4413531;32;20314;-51
2021/03/01 10:19:08;;;;;;;;;;;;;;;16.99;37.63;101577.91;4418590;32;20341;-54
2021/03/01 10:21:34;;;;;;;;;;;;;;;16.91;37.78;101579.28;4419684;32;19981;-53
2021/03/01 10:24:00;;;;;;;;;;;;;;;16.94;37.81;101574.16;4415764;32;19988;-53
2021/03/01 10:26:26;;;;;;;;;;;;;;;16.97;37.74;101579.53;4418600;32;19980;-51
2021/03/01 10:28:52;;;;;;;;;;;;;;;16.82;37.93;101572.75;4422524;32;19964;-53
2021/03/01 10:31:18;;;;;;;;;;;;;;;16.78;38.15;101573.44;4414589;32;20419;-53
2021/03/01 10:33:44;;;;;;;;;;;;;;;16.82;38.59;101570.13;4407033;32;19989;-49
2021/03/01 10:36:09;;;;;;;;;;;;;;;17.00;38.05;101582.37;4419404;32;19968;-51
2021/03/01 10:38:35;;;;;;;;;;;;;;;16.71;38.64;101572.28;4417861;32;20424;-53
2021/03/01 10:41:01;;;;;;;;;;;;;;;16.79;38.47;101574.34;4414950;32;19966;-55
2021/03/01 10:43:27;;;;;;;;;;;;;;;16.85;38.29;101575.56;4418736;32;20003;-48
2021/03/01 10:45:53;;;;;;;;;;;;;;;16.96;38.03;101572.47;4413860;32;19957;-51
2021/03/01 10:48:19;;;;;;;;;;;;;;;16.98;37.93;101568.22;4417096;32;19954;-55
2021/03/01 10:50:45;;;;;;;;;;;;;;;16.97;37.93;101572.56;4424758;32;20339;-53
2021/03/01 10:53:11;;;;;;;;;;;;;;;17.05;37.77;101567.69;4414564;32;19974;-52
2021/03/01 10:55:37;;;;;;;;;;;;;;;17.06;37.79;101563.34;4418174;32;19997;-48
2021/03/01 10:58:03;;;;;;;;;;;;;;;17.03;37.83;101568.44;4416347;32;20590;-49
2021/03/01 11:00:29;;;;;;;;;;;;;;;17.05;37.83;101567.69;4416403;32;20013;-50
2021/03/01 11:02:55;;;;;;;;;;;;;;;17.08;37.77;101566.94;4415452;32;19954;-53
2021/03/01 11:05:20;;;;;;;;;;;;;;;17.06;37.76;101564.22;4414819;32;20001;-54
2021/03/01 11:07:46;;;;;;;;;;;;;;;17.02;37.90;101571.91;4415738;32;20334;-51
2021/03/01 11:10:12;;;;;;;;;;;;;;;17.04;37.90;101570.22;4415459;32;19949;-53
2021/03/01 11:12:38;;;;;;;;;;;;;;;17.05;37.95;101566.78;4419843;32;19955;-51
2021/03/01 11:15:04;;;;;;;;;;;;;;;17.05;37.90;101561.53;4418004;32;20757;-53
2021/03/01 11:17:30;;;;;;;;;;;;;;;17.06;37.83;101560.69;4414884;32;19993;-55
2021/03/01 11:19:57;;;;;;;;;;;;;;;17.05;37.92;101551.87;4416549;32;20331;-52
2021/03/01 11:22:23;;;;;;;;;;;;;;;17.06;37.90;101558.06;4417893;32;20041;-52
2021/03/01 11:24:49;;;;;;;;;;;;;;;17.09;37.78;101548.56;4421013;32;20294;-50
2021/03/01 11:27:15;;;;;;;;;;;;;;;17.05;37.95;101544.00;4414429;32;19958;-54
2021/03/01 11:29:41;;;;;;;;;;;;;;;17.08;37.90;101545.87;4415760;32;19969;-55
2021/03/01 11:32:07;;;;;;;;;;;;;;;17.08;37.86;101538.84;4414176;32;19962;-55
2021/03/01 11:34:33;;;;;;;;;;;;;;;17.09;37.87;101532.75;4419487;32;19958;-53
2021/03/01 11:36:58;;;;;;;;;;;;;;;17.13;37.84;101534.72;4413098;32;20381;-51
2021/03/01 11:39:24;;;;;;;;;;;;;;;17.16;37.78;101538.31;4417029;32;19958;-52
2021/03/01 11:41:50;;;;;;;;;;;;;;;17.17;37.77;101527.88;4415605;32;19987;-54
2021/03/01 11:44:16;;;;;;;;;;;;;;;17.17;37.77;101519.97;4417038;32;19958;-49
2021/03/01 11:46:42;;;;;;;;;;;;;;;17.20;37.71;101524.44;4417935;32;19980;-50
2021/03/01 11:49:08;;;;;;;;;;;;;;;17.17;37.69;101519.06;4417086;32;20750;-51
2021/03/01 11:51:34;;;;;;;;;;;;;;;17.18;37.77;101515.59;4420408;32;19962;-51
2021/03/01 11:53:59;;;;;;;;;;;;;;;17.20;37.74;101511.28;4421427;32;19997;-49
2021/03/01 11:56:26;;;;;;;;;;;;;;;16.88;35.90;101503.72;4417881;32;19962;-51
2021/03/01 11:58:52;;;;;;;;;;;;;;;16.55;37.54;101507.53;4422593;32;20740;-48
2021/03/01 12:01:18;;;;;;;;;;;;;;;16.53;38.29;101503.03;4420216;32;20514;-50
2021/03/01 12:03:44;;;;;;;;;;;;;;;16.51;38.53;101495.06;4421439;32;19954;-49
2021/03/01 12:06:10;;;;;;;;;;;;;;;16.66;38.51;101499.25;4417173;32;20545;-48
2021/03/01 12:08:36;;;;;;;;;;;;;;;16.88;38.17;101497.59;4425394;32;20316;-51
2021/03/01 12:11:02;;;;;;;;;;;;;;;16.88;38.31;101497.59;4416844;32;19997;-52
2021/03/01 12:13:27;;;;;;;;;;;;;;;16.88;38.41;101495.84;4414489;32;20555;-50
2021/03/01 12:15:53;;;;;;;;;;;;;;;16.83;38.53;101493.00;4419459;32;19989;-51
2021/03/01 12:18:19;;;;;;;;;;;;;;;16.92;38.46;101491.63;4415319;32;20556;-51
2021/03/01 12:20:45;;;;;;;;;;;;;;;16.97;38.39;101484.81;4418409;32;19999;-50
2021/03/01 12:23:11;;;;;;;;;;;;;;;16.96;38.48;101483.00;4414699;32;19958;-49
2021/03/01 12:25:37;;;;;;;;;;;;;;;16.95;38.59;101476.88;4416424;32;19976;-51
2021/03/01 12:28:03;;;;;;;;;;;;;;;16.97;38.54;101474.28;4416431;32;19962;-52
2021/03/01 12:30:29;;;;;;;;;;;;;;;17.07;38.37;101471.25;4422148;32;19950;-52